Nearby METAR Reports

 

KEWB - New Bedford, Massachusetts, USA
Distance from station: ESE 9mi, 15km
Updated: Tue, 30-Nov-2021 3:53pm EST
Overcast
Overcast
 Wind from W
Wind: W 10 mph , 17 km/h
Temperature: 39°F , 4°C
Wind Chill: 32°F , 0°C
Dew Point: 27°F , -3°C
Humidity: 61%
Barometer: 29.93 inHg , 1013.5 hPa
Clouds: Overcast
Visibility: 10 miles , 16 km
Cloud details: Few Clouds 3800 ft
Mostly cloudy 5500 ft
Overcast 6500 ft
2021/11/30 20:53 KEWB 302053Z 26009KT 10SM FEW038 BKN055 OVC065 04/M03 A2993 RMK AO2 SLP136 T00391033 55005
KTAN - Taunton, Massachusetts, USA
Distance from station: NNE 11mi, 18km
Updated: Tue, 30-Nov-2021 3:52pm EST
Overcast
Overcast
 Wind from SW
Wind: SW 9 mph , 15 km/h
Temperature: 39°F , 4°C
Wind Chill: 33°F , 1°C
Dew Point: 21°F , -6°C
Humidity: 48%
Barometer: 29.92 inHg , 1013.2 hPa
Clouds: Overcast
Visibility: 10 miles , 16 km
Cloud details: Few Clouds 6000 ft
Partly cloudy 8500 ft
Overcast 11000 ft
2021/11/30 20:52 KTAN 302052Z AUTO 23008KT 10SM FEW060 SCT085 OVC110 04/M06 A2992 RMK AO2 SLP133 T00391056 56006
 
KPVD - Providence/Green, Rhode Island, USA
Distance from station: W 16mi, 26km
Updated: Tue, 30-Nov-2021 3:51pm EST
Overcast
Overcast
 Wind from WSW
Wind: WSW 14 mph , 22 km/h
Temperature: 37°F , 3°C
Wind Chill: 28°F , -2°C
Dew Point: 25°F , -4°C
Humidity: 60%
Barometer: 29.94 inHg , 1013.9 hPa
Clouds: Overcast
Visibility: 10 miles , 16 km
Cloud details: Partly cloudy 7000 ft
Mostly cloudy 11000 ft
Overcast 15000 ft
2021/11/30 20:51 KPVD 302051Z 24012KT 10SM SCT070 BKN110 OVC150 03/M04 A2994 RMK AO2 SLP137 T00331044 56005
KUUU - Newport, Rhode Island, USA
Distance from station: SSW 16mi, 27km
Updated: Tue, 30-Nov-2021 3:53pm EST
Overcast
Overcast
 Wind from calm
Wind: Calm
Temperature: 36°F , 2°C
Dew Point: 28°F , -2°C
Humidity: 75%
Barometer: 29.93 inHg , 1013.5 hPa
Clouds: Overcast
Visibility: 10 miles , 16 km
Cloud details: Mostly cloudy 6000 ft
Overcast 9000 ft
2021/11/30 20:53 KUUU 302053Z AUTO 00000KT 10SM BKN060 OVC090 02/M02 A2993 RMK AO2 SLP135 T00221017 58006
 
KOQU - N. Kingston/Quon, Rhode Island, USA
Distance from station: WSW 18mi, 29km
Updated: Tue, 30-Nov-2021 2:50pm EST
NOT Current
Mostly cloudy
Mostly cloudy
 Wind from W
Wind: W 14 mph , 22 km/h
Temperature: 39°F , 4°C
Wind Chill: 31°F , -1°C
Dew Point: 25°F , -4°C
Humidity: 56%
Barometer: 29.94 inHg , 1013.9 hPa
Clouds: Mostly cloudy
Visibility: 10 miles , 16 km
Cloud details: Few Clouds 6000 ft
Partly cloudy 15000 ft
Mostly cloudy 20000 ft
2021/11/30 19:50 KOQU 301950Z 26012KT 10SM FEW060 SCT150 BKN200 04/M04 A2994
KPYM - Plymouth, Massachusetts, USA
Distance from station: ENE 23mi, 37km
Updated: Tue, 30-Nov-2021 3:52pm EST
Overcast
Overcast
 Wind from SW
Wind: SW 9 mph , 15 km/h
Temperature: 37°F , 3°C
Wind Chill: 30°F , -1°C
Dew Point: 21°F , -6°C
Humidity: 52%
Barometer: 29.91 inHg , 1012.9 hPa
Clouds: Overcast
Visibility: 10 miles , 16 km
Cloud details: Overcast 11000 ft
2021/11/30 20:52 KPYM 302052Z AUTO 22008KT 10SM OVC110 03/M06 A2991 RMK AO2 SLP130 T00331061 56008
 
KSFZ - Pawtucket, Rhode Island, USA
Distance from station: WNW 23mi, 38km
Updated: Tue, 30-Nov-2021 3:56pm EST
Clear
Clear
 Wind from varies
Wind: varies 7 mph , 11 km/h
Temperature: 36°F , 2°C
Wind Chill: 30°F , -1°C
Dew Point: 23°F , -5°C
Humidity: 60%
Barometer: 29.91 inHg , 1012.9 hPa
Clouds: Clear
Visibility: 10 miles , 16 km
2021/11/30 20:56 KSFZ 302056Z AUTO VRB06KT 10SM CLR 02/M05 A2991 RMK AO2 SLP140 6//// T00221050 57003 FZRANO PNO $
KOWD - Norwood, Massachusetts, USA
Distance from station: N 31mi, 50km
Updated: Tue, 30-Nov-2021 3:53pm EST
Overcast
Overcast
 Wind from SW
Wind: SW 9 mph , 15 km/h
Temperature: 39°F , 4°C
Wind Chill: 33°F , 1°C
Dew Point: 19°F , -7°C
Humidity: 45%
Barometer: 29.91 inHg , 1012.9 hPa
Clouds: Overcast
Visibility: 10 miles , 16 km
Cloud details: Overcast 11000 ft
2021/11/30 20:53 KOWD 302053Z 22008KT 10SM OVC110 04/M07 A2991 RMK AO2 SLP129 T00441067 56006
 
KFMH - Falmouth/Otis Ab, Massachusetts, USA
Distance from station: ESE 32mi, 51km
Updated: Tue, 30-Nov-2021 3:56pm EST
Mostly cloudy
Mostly cloudy
 Wind from WSW
Wind: WSW 12 mph , 19 km/h, Gust: 21 mph , 33 km/h
Temperature: 39°F , 4°C
Wind Chill: 32°F , 0°C
Dew Point: 23°F , -5°C
Humidity: 52%
Barometer: 29.93 inHg , 1013.5 hPa
Clouds: Mostly cloudy
Visibility: 7 miles , 11 km
Cloud details: Mostly cloudy 3000 ft
2021/11/30 20:56 KFMH 302056Z 24010G18KT 7SM BKN030 04/M05 A2993
KMQE - East Milton, Massachusetts, USA
Distance from station: N 33mi, 53km
Updated: Thu, 01-Jul-2021 9:51am EDT
NOT Current

 Wind from WNW
Wind: WNW 9 mph , 15 km/h
Temperature: 75°F , 24°C
Dew Point: 70°F , 21°C
Humidity: 83%
Barometer: 29.86 inHg , 1011.2 hPa
2021/07/01 13:51 KMQE 011351Z AUTO 30008KT 24/21 A2986 RMK AO1 SLP116 T02440206
 
KGHG - Marshfield, Massachusetts, USA
Distance from station: NE 34mi, 55km
Updated: Tue, 30-Nov-2021 4:35pm EST
Overcast
Overcast
 Wind from SW
Wind: SW 5 mph , 7 km/h
Temperature: 37°F , 3°C
Wind Chill: 33°F , 1°C
Dew Point: 19°F , -7°C
Humidity: 48%
Barometer: 29.92 inHg , 1013.2 hPa
Clouds: Overcast
Visibility: 10 miles , 16 km
Cloud details: Few Clouds 7000 ft
Overcast 9000 ft
2021/11/30 21:35 KGHG 302135Z AUTO 22004KT 10SM FEW070 OVC090 03/M07 A2992 RMK AO2
KMVY - Marthas Vineyard, Massachusetts, USA
Distance from station: SE 35mi, 56km
Updated: Tue, 30-Nov-2021 4:43pm EST
Light rain, Overcast
Light rain, Overcast
 Wind from W
Wind: W 5 mph , 7 km/h
Temperature: 37°F , 3°C
Wind Chill: 33°F , 1°C
Dew Point: 34°F , 1°C
Humidity: 87%
Barometer: 29.94 inHg , 1013.9 hPa
Summary: Light rain
Clouds: Overcast
Visibility: 10 miles , 16 km
Cloud details: Few Clouds 1900 ft
Mostly cloudy 2700 ft
Overcast 3400 ft
2021/11/30 21:43 KMVY 302143Z 28004KT 10SM -RA FEW019 BKN027 OVC034 03/01 A2994 RMK AO2 P0000 T00330011
 
KBOS - Boston, Massachusetts, USA
Distance from station: N 44mi, 71km
Updated: Tue, 30-Nov-2021 3:54pm EST
Mostly cloudy
Mostly cloudy
 Wind from SW
Wind: SW 13 mph , 20 km/h
Temperature: 39°F , 4°C
Wind Chill: 31°F , -1°C
Dew Point: 19°F , -7°C
Humidity: 45%
Barometer: 29.90 inHg , 1012.5 hPa
Clouds: Mostly cloudy
Visibility: 10 miles , 16 km
Cloud details: Few Clouds 7000 ft
Mostly cloudy 12000 ft
Mostly cloudy 25000 ft
2021/11/30 20:54 KBOS 302054Z 22011KT 10SM FEW070 BKN120 BKN250 04/M07 A2990 RMK AO2 SLP124 T00391072 56007
KHYA - Hyannis, Massachusetts, USA
Distance from station: E 44mi, 71km
Updated: Tue, 30-Nov-2021 3:56pm EST
Overcast
Overcast
 Wind from SW
Wind: SW 7 mph , 11 km/h
Temperature: 39°F , 4°C
Wind Chill: 34°F , 1°C
Dew Point: 25°F , -4°C
Humidity: 56%
Barometer: 29.92 inHg , 1013.2 hPa
Clouds: Overcast
Visibility: 10 miles , 16 km
Cloud details: Partly cloudy 6000 ft
Overcast 10000 ft
2021/11/30 20:56 KHYA 302056Z 23006KT 10SM SCT060 OVC100 04/M04 A2992 RMK AO2 SLP133 T00391039 58008
 
KWST - Westerly, Rhode Island, USA
Distance from station: SW 44mi, 71km
Updated: Tue, 30-Nov-2021 4:11pm EST
Light snow, Mist, Overcast
Light snow, Mist, Overcast
 Wind from varies
Wind: varies 5 mph , 7 km/h
Temperature: 34°F , 1°C
Wind Chill: 29°F , -2°C
Dew Point: 30°F , -1°C
Humidity: 87%
Barometer: 29.95 inHg , 1014.2 hPa
Summary: Light snow, Mist
Clouds: Overcast
Visibility: 3 miles , 5 km
Cloud details: Partly cloudy 900 ft
Mostly cloudy 1500 ft
Overcast 4000 ft
2021/11/30 21:11 KWST 302111Z AUTO VRB04KT 3SM -SN BR SCT009 BKN015 OVC040 01/M01 A2995 RMK AO2 P0001 T00111006
KBID - Block Island, Rhode Island, USA
Distance from station: SSW 46mi, 74km
Updated: Tue, 30-Nov-2021 3:56pm EST
Overcast
Overcast
 Wind from WSW
Wind: WSW 15 mph , 24 km/h, Gust: 21 mph , 33 km/h
Temperature: 37°F , 3°C
Wind Chill: 28°F , -2°C
Dew Point: 27°F , -3°C
Humidity: 65%
Barometer: 29.95 inHg , 1014.2 hPa
Clouds: Overcast
Visibility: 10 miles , 16 km
Cloud details: Mostly cloudy 3200 ft
Mostly cloudy 5000 ft
Overcast 9000 ft
2021/11/30 20:56 KBID 302056Z AUTO 25013G18KT 10SM BKN032 BKN050 OVC090 03/M03 A2995 RMK AO2 SLP144 T00331033 56006